createdAt,value
2019-02-11T00:00:47.470Z,53.24
2019-02-11T00:03:27.357Z,53.43
2019-02-11T00:06:01.612Z,54.19
2019-02-11T00:08:33.878Z,54.20
2019-02-11T00:11:07.450Z,54.54
2019-02-11T00:13:39.313Z,54.45
2019-02-11T00:16:11.764Z,54.55
2019-02-11T00:18:44.186Z,53.81
2019-02-11T00:21:17.274Z,55.25
2019-02-11T00:23:52.285Z,55.70
2019-02-11T00:26:24.419Z,55.53
2019-02-11T00:28:56.799Z,55.94
2019-02-11T00:31:29.688Z,56.29
2019-02-11T00:34:03.448Z,56.37
2019-02-11T00:36:38.833Z,56.46
2019-02-11T00:39:10.990Z,56.67
2019-02-11T00:41:41.877Z,56.97
2019-02-11T00:44:15.849Z,56.54
2019-02-11T00:46:48.007Z,55.95
2019-02-11T00:49:19.827Z,56.48
2019-02-11T00:51:51.678Z,56.26
2019-02-11T00:54:23.795Z,56.17
2019-02-11T00:56:59.993Z,56.84
2019-02-11T00:59:32.251Z,57.18
2019-02-11T01:02:10.185Z,56.40
2019-02-11T01:04:43.341Z,56.27
2019-02-11T01:07:14.771Z,55.88
2019-02-11T01:09:47.083Z,56.85
2019-02-11T01:12:19.305Z,56.81
2019-02-11T01:14:50.841Z,57.20
2019-02-11T01:17:24.538Z,56.94
2019-02-11T01:19:56.357Z,56.94
2019-02-11T01:22:28.703Z,56.74
2019-02-11T01:25:02.156Z,55.70
2019-02-11T01:27:33.972Z,55.36
2019-02-11T01:30:14.231Z,55.83
2019-02-11T01:32:48.470Z,54.91
2019-02-11T01:35:20.291Z,54.47
2019-02-11T01:37:55.284Z,54.33
2019-02-11T01:40:33.088Z,54.06
2019-02-11T01:43:04.997Z,54.11
2019-02-11T01:45:37.371Z,54.18
2019-02-11T01:48:10.160Z,53.78
2019-02-11T01:50:42.462Z,53.63
2019-02-11T01:53:14.583Z,53.34
2019-02-11T01:55:47.688Z,53.77
2019-02-11T01:58:19.846Z,53.51
2019-02-11T02:00:53.198Z,53.25
2019-02-11T02:03:24.687Z,52.61
2019-02-11T02:05:56.724Z,53.05
2019-02-11T02:08:30.875Z,52.91
2019-02-11T02:11:03.416Z,52.56
2019-02-11T02:14:00.617Z,52.76
2019-02-11T02:16:32.412Z,52.39
2019-02-11T02:19:04.311Z,52.78
2019-02-11T02:21:36.431Z,52.57
2019-02-11T02:24:08.595Z,52.58
2019-02-11T02:26:40.539Z,52.72
2019-02-11T02:29:12.545Z,53.10
2019-02-11T02:31:45.943Z,53.20
2019-02-11T02:34:17.486Z,52.78
2019-02-11T02:36:48.536Z,52.77
2019-02-11T02:39:23.034Z,52.85
2019-02-11T02:41:54.934Z,53.02
2019-02-11T02:44:27.071Z,52.99
2019-02-11T02:46:59.315Z,52.98
2019-02-11T02:49:36.987Z,52.82
2019-02-11T02:52:10.723Z,52.62
2019-02-11T02:54:41.843Z,52.19
2019-02-11T02:57:15.572Z,52.86
2019-02-11T02:59:47.477Z,53.01
2019-02-11T03:02:19.810Z,52.12
2019-02-11T03:04:51.621Z,52.63
2019-02-11T03:07:23.645Z,52.64
2019-02-11T03:09:54.705Z,52.71
2019-02-11T03:12:26.673Z,52.34
2019-02-11T03:14:57.824Z,52.23
2019-02-11T03:17:29.631Z,51.95
2019-02-11T03:20:02.022Z,52.33
2019-02-11T03:22:34.349Z,51.98
2019-02-11T03:25:06.322Z,52.45
2019-02-11T03:27:37.528Z,52.39
2019-02-11T03:30:08.704Z,52.11
2019-02-11T03:32:40.538Z,52.21
2019-02-11T03:35:11.528Z,52.03
2019-02-11T03:37:42.418Z,51.83
2019-02-11T03:40:16.040Z,51.28
2019-02-11T03:42:47.847Z,51.58
2019-02-11T03:45:19.271Z,51.54
2019-02-11T03:47:51.719Z,51.68
2019-02-11T03:50:23.275Z,51.84
2019-02-11T03:52:55.388Z,51.33
2019-02-11T03:55:30.503Z,51.27
2019-02-11T03:58:03.409Z,51.37
2019-02-11T04:00:39.882Z,51.19
2019-02-11T04:03:12.145Z,51.43
2019-02-11T04:05:44.446Z,51.23
2019-02-11T04:08:16.436Z,51.25
2019-02-11T04:10:48.717Z,50.88
2019-02-11T04:13:21.503Z,50.88
2019-02-11T04:15:59.051Z,50.27
2019-02-11T04:18:37.968Z,50.46
2019-02-11T04:21:10.436Z,50.72
2019-02-11T04:23:44.489Z,50.63
2019-02-11T04:26:15.821Z,50.78
2019-02-11T04:28:51.458Z,50.66
2019-02-11T04:31:24.353Z,50.94
2019-02-11T04:33:58.316Z,51.50
2019-02-11T04:36:29.479Z,50.66
2019-02-11T04:39:01.048Z,50.59
2019-02-11T04:41:32.381Z,51.00
2019-02-11T04:44:03.588Z,51.00
2019-02-11T04:46:36.291Z,50.15
2019-02-11T04:49:07.520Z,49.98
2019-02-11T04:51:40.774Z,49.72
2019-02-11T04:54:18.300Z,50.10
2019-02-11T04:56:55.261Z,49.80
2019-02-11T04:59:35.409Z,50.34
2019-02-11T05:02:07.680Z,50.12
2019-02-11T05:04:42.182Z,49.97
2019-02-11T05:07:13.302Z,49.57
2019-02-11T05:09:44.365Z,49.51
2019-02-11T05:12:16.287Z,50.17
2019-02-11T05:14:48.671Z,49.77
2019-02-11T05:17:19.666Z,50.12
2019-02-11T05:19:50.686Z,50.14
2019-02-11T05:22:21.830Z,50.60
2019-02-11T05:24:53.367Z,50.12
2019-02-11T05:27:24.786Z,50.21
2019-02-11T05:29:56.717Z,50.12
2019-02-11T05:32:28.685Z,49.95
2019-02-11T05:35:02.139Z,49.92
2019-02-11T05:37:39.978Z,49.68
2019-02-11T05:40:14.223Z,49.28
2019-02-11T05:42:56.153Z,49.12
2019-02-11T05:45:27.816Z,49.14
2019-02-11T05:48:00.055Z,49.03
2019-02-11T05:50:31.960Z,49.31
2019-02-11T05:53:07.231Z,49.09
2019-02-11T05:55:38.381Z,49.21
2019-02-11T05:58:10.976Z,49.14
2019-02-11T06:00:52.577Z,49.88
2019-02-11T06:03:26.718Z,49.52
2019-02-11T06:05:58.738Z,49.13
2019-02-11T06:08:31.769Z,49.67
2019-02-11T06:11:03.620Z,49.17
2019-02-11T06:13:34.798Z,49.56
2019-02-11T06:16:25.165Z,49.88
2019-02-11T06:18:59.966Z,49.96
2019-02-11T06:21:38.306Z,49.97
2019-02-11T06:24:12.531Z,49.64
2019-02-11T06:26:51.309Z,49.72
2019-02-11T06:29:41.092Z,49.48
2019-02-11T06:32:21.007Z,49.10
2019-02-11T06:34:53.990Z,49.66
2019-02-11T06:37:28.635Z,48.77
2019-02-11T06:40:06.159Z,49.06
2019-02-11T06:42:37.830Z,48.57
2019-02-11T06:48:02.446Z,48.45
2019-02-11T06:50:38.052Z,48.49
2019-02-11T06:53:15.014Z,48.44
2019-02-11T06:55:50.039Z,48.64
2019-02-11T06:58:27.003Z,48.40
2019-02-11T07:01:39.427Z,47.99
2019-02-11T07:04:15.129Z,47.63
2019-02-11T07:06:48.359Z,47.30
2019-02-11T07:09:51.539Z,47.61
2019-02-11T07:12:54.960Z,47.26
2019-02-11T07:16:38.422Z,48.00
2019-02-11T07:19:21.974Z,47.47
2019-02-11T07:22:23.550Z,48.00
2019-02-11T07:28:20.825Z,46.85
2019-02-11T07:34:38.696Z,45.93
2019-02-11T07:37:21.225Z,45.77
2019-02-11T07:39:59.232Z,46.00
2019-02-11T07:42:49.617Z,46.06
2019-02-11T07:45:40.531Z,46.67
2019-02-11T07:48:12.097Z,46.85
2019-02-11T07:50:46.394Z,45.29
2019-02-11T07:53:29.130Z,44.51
2019-02-11T07:56:08.688Z,44.65
2019-02-11T07:58:48.321Z,45.08
2019-02-11T08:01:26.023Z,45.55
2019-02-11T08:04:00.671Z,44.78
2019-02-11T08:06:34.930Z,44.70
2019-02-11T08:09:14.868Z,44.16
2019-02-11T08:11:59.235Z,43.83
2019-02-11T08:14:36.087Z,43.42
2019-02-11T08:17:12.125Z,43.65
2019-02-11T08:19:46.116Z,44.47
2019-02-11T08:22:24.715Z,44.94
2019-02-11T08:25:06.077Z,44.85
2019-02-11T08:27:48.079Z,45.73
2019-02-11T08:30:46.190Z,45.73
2019-02-11T08:33:26.052Z,45.83
2019-02-11T08:36:09.777Z,44.17
2019-02-11T08:38:42.065Z,45.14
2019-02-11T08:41:22.054Z,45.86
2019-02-11T08:47:21.366Z,42.38
2019-02-11T08:49:59.004Z,43.37
2019-02-11T08:52:31.330Z,43.72
2019-02-11T08:55:13.857Z,44.31
2019-02-11T08:57:54.392Z,44.35
2019-02-11T09:00:46.978Z,45.13
2019-02-11T09:03:27.433Z,45.19
2019-02-11T09:05:59.570Z,44.09
2019-02-11T09:08:32.507Z,44.30
2019-02-11T09:11:10.914Z,44.35
2019-02-11T09:13:44.738Z,43.99
2019-02-11T09:16:21.013Z,43.61
2019-02-11T09:19:01.485Z,44.12
2019-02-11T09:21:34.485Z,44.41
2019-02-11T09:24:06.591Z,43.56
2019-02-11T09:26:50.525Z,43.48
2019-02-11T09:29:30.195Z,43.00
2019-02-11T09:32:09.255Z,41.89
2019-02-11T09:34:47.052Z,42.46
2019-02-11T09:37:22.493Z,43.22
2019-02-11T09:40:08.190Z,42.96
2019-02-11T09:42:43.223Z,41.69
2019-02-11T09:45:34.858Z,41.69
2019-02-11T09:48:12.935Z,41.50
2019-02-11T09:51:04.973Z,43.80
2019-02-11T09:54:10.096Z,44.72
2019-02-11T09:56:51.451Z,44.61
2019-02-11T09:59:52.946Z,43.37
2019-02-11T10:02:36.574Z,43.54
2019-02-11T10:05:08.583Z,43.40
2019-02-11T10:07:55.640Z,43.16
2019-02-11T10:10:31.229Z,42.23
2019-02-11T10:13:05.514Z,43.34
2019-02-11T10:15:48.515Z,43.02
2019-02-11T10:18:19.934Z,43.62
2019-02-11T10:21:04.792Z,42.99
2019-02-11T10:23:52.744Z,42.41
2019-02-11T10:26:30.828Z,41.66
2019-02-11T10:29:19.670Z,41.81
2019-02-11T10:31:55.197Z,39.26
2019-02-11T10:34:30.040Z,39.26
2019-02-11T10:37:03.644Z,39.89
2019-02-11T10:39:41.637Z,39.37
2019-02-11T10:42:20.229Z,38.82
2019-02-11T10:45:04.346Z,38.35
2019-02-11T10:47:39.934Z,37.49
2019-02-11T10:50:18.568Z,38.52
2019-02-11T10:52:54.546Z,39.63
2019-02-11T10:55:34.790Z,40.05
2019-02-11T10:58:11.301Z,39.98
2019-02-11T11:00:57.245Z,39.64
2019-02-11T11:03:42.950Z,39.93
2019-02-11T11:06:19.283Z,40.24
2019-02-11T11:09:04.597Z,40.01
2019-02-11T11:11:40.329Z,38.37
2019-02-11T11:14:11.431Z,37.99
2019-02-11T11:16:47.282Z,38.40
2019-02-11T11:19:33.471Z,37.76
2019-02-11T11:25:16.389Z,37.77
2019-02-11T11:27:55.505Z,38.00
2019-02-11T11:30:35.136Z,37.70
2019-02-11T11:33:07.335Z,37.06
2019-02-11T11:35:46.742Z,37.05
2019-02-11T11:38:21.117Z,36.29
2019-02-11T11:40:52.943Z,36.88
2019-02-11T11:43:28.398Z,36.37
2019-02-11T11:46:09.395Z,36.22
2019-02-11T11:48:42.756Z,36.12
2019-02-11T11:51:18.013Z,35.35
2019-02-11T11:54:10.733Z,34.99
2019-02-11T11:56:46.061Z,35.14
2019-02-11T11:59:23.652Z,35.21
2019-02-11T12:02:00.960Z,35.42
2019-02-11T12:04:43.399Z,35.38
2019-02-11T12:07:19.753Z,35.29
2019-02-11T12:09:58.013Z,35.09
2019-02-11T12:12:32.348Z,35.32
2019-02-11T12:15:09.014Z,35.48
2019-02-11T12:18:02.393Z,35.40
2019-02-11T12:20:59.445Z,35.52
2019-02-11T12:23:33.181Z,34.97
2019-02-11T12:26:10.918Z,35.46
2019-02-11T12:28:48.207Z,35.26
2019-02-11T12:31:38.549Z,34.83
2019-02-11T12:34:21.189Z,34.48
2019-02-11T12:37:03.180Z,34.09
2019-02-11T12:39:47.438Z,33.99
2019-02-11T12:42:23.411Z,33.73
2019-02-11T12:45:25.811Z,33.80
2019-02-11T12:48:03.132Z,34.08
2019-02-11T12:50:56.247Z,34.39
2019-02-11T12:53:43.467Z,35.02
2019-02-11T12:56:25.055Z,33.90
2019-02-11T12:59:10.364Z,34.10
2019-02-11T13:01:48.258Z,33.09
2019-02-11T13:04:27.952Z,32.70
2019-02-11T13:07:08.989Z,32.13
2019-02-11T13:09:47.001Z,31.56
2019-02-11T13:12:29.338Z,32.07
2019-02-11T13:15:33.753Z,32.97
2019-02-11T13:17:47.619Z,33.96
2019-02-11T13:20:21.374Z,34.15
2019-02-11T13:22:55.805Z,33.97
2019-02-11T13:25:31.863Z,33.66
2019-02-11T13:28:14.704Z,34.35
2019-02-11T13:30:48.892Z,33.75
2019-02-11T13:33:22.489Z,33.89
2019-02-11T13:35:57.415Z,33.77
2019-02-11T13:38:30.511Z,33.51
2019-02-11T13:41:05.445Z,33.73
2019-02-11T13:43:40.552Z,34.55
2019-02-11T13:46:11.600Z,34.99
2019-02-11T13:48:49.059Z,36.32
2019-02-11T13:51:20.204Z,36.69
2019-02-11T13:53:51.266Z,36.74
2019-02-11T13:56:22.994Z,36.63
2019-02-11T13:58:56.997Z,35.91
2019-02-11T14:01:31.267Z,35.66
2019-02-11T14:04:02.407Z,35.24
2019-02-11T14:06:54.142Z,36.52
2019-02-11T14:09:17.134Z,37.96
2019-02-11T14:14:58.136Z,38.58
2019-02-11T14:20:42.640Z,37.61
2019-02-11T14:23:33.823Z,37.18
2019-02-11T14:29:27.076Z,36.57
2019-02-11T14:31:59.275Z,36.16
2019-02-11T14:34:50.356Z,35.47
2019-02-11T14:37:23.027Z,35.76
2019-02-11T14:43:10.007Z,36.05
2019-02-11T14:46:05.218Z,36.23
2019-02-11T14:49:14.232Z,36.23
2019-02-11T14:52:24.052Z,36.49
2019-02-11T14:58:20.475Z,37.88
2019-02-11T15:01:06.011Z,37.82
2019-02-11T15:06:44.918Z,38.16
2019-02-11T15:09:35.071Z,38.45
2019-02-11T15:15:48.249Z,37.94
2019-02-11T15:18:37.947Z,37.71
2019-02-11T15:21:31.992Z,38.81
2019-02-11T15:28:09.600Z,41.04
2019-02-11T15:31:00.310Z,41.35
2019-02-11T15:33:56.714Z,42.32
2019-02-11T15:36:27.659Z,43.35
2019-02-11T15:38:58.724Z,43.84
2019-02-11T15:44:44.436Z,44.29
2019-02-11T15:50:18.011Z,43.64
2019-02-11T15:52:49.827Z,43.20
2019-02-11T15:55:20.783Z,43.60
2019-02-11T15:57:54.048Z,43.75
2019-02-11T16:03:39.238Z,44.54
2019-02-11T16:06:37.844Z,44.69
2019-02-11T16:09:43.249Z,44.36
2019-02-11T16:15:37.622Z,44.60
2019-02-11T16:18:23.186Z,44.78
2019-02-11T16:21:13.370Z,44.78
2019-02-11T16:27:13.984Z,43.78
2019-02-11T16:29:47.194Z,44.05
2019-02-11T16:32:36.850Z,44.01
2019-02-11T16:35:28.129Z,44.35
2019-02-11T16:38:37.789Z,44.37
2019-02-11T16:44:21.329Z,45.10
2019-02-11T16:47:12.449Z,44.89
2019-02-11T16:49:59.074Z,44.70
2019-02-11T16:52:30.161Z,44.77
2019-02-11T16:55:01.189Z,44.78
2019-02-11T17:00:41.347Z,45.07
2019-02-11T17:03:53.029Z,44.53
2019-02-11T17:07:04.075Z,45.03
2019-02-11T17:09:55.006Z,44.65
2019-02-11T17:13:18.552Z,44.09
2019-02-11T17:15:50.228Z,44.44
2019-02-11T17:18:22.132Z,44.95
2019-02-11T17:21:31.386Z,45.97
2019-02-11T17:27:14.390Z,44.59
2019-02-11T17:30:27.177Z,44.96
2019-02-11T17:33:20.436Z,45.34
2019-02-11T17:35:51.418Z,45.12
2019-02-11T17:39:01.488Z,43.96
2019-02-11T17:41:33.281Z,43.96
2019-02-11T17:44:43.261Z,44.52
2019-02-11T17:50:35.409Z,43.82
2019-02-11T17:53:13.858Z,43.97
2019-02-11T17:56:52.471Z,43.48
2019-02-11T17:59:02.484Z,43.47
2019-02-11T18:02:15.204Z,42.94
2019-02-11T18:07:37.849Z,42.19
2019-02-11T18:10:35.202Z,42.67
2019-02-11T18:13:27.607Z,44.01
2019-02-11T18:15:59.443Z,44.16
2019-02-11T18:18:50.255Z,41.85
2019-02-11T18:21:39.388Z,41.85
2019-02-11T18:24:30.489Z,42.55
2019-02-11T18:27:41.881Z,43.25
2019-02-11T18:30:36.021Z,43.01
2019-02-11T18:33:10.279Z,44.14
2019-02-11T18:39:03.008Z,44.58
2019-02-11T18:48:10.264Z,44.16
2019-02-11T18:50:50.941Z,44.49
2019-02-11T19:02:45.617Z,44.42
2019-02-11T19:11:43.164Z,43.88
2019-02-11T19:14:33.061Z,44.41
2019-02-11T19:17:22.149Z,43.99
2019-02-11T19:19:53.171Z,44.48
2019-02-11T19:22:25.251Z,44.22
2019-02-11T19:25:15.201Z,44.25
2019-02-11T19:28:07.318Z,44.13
2019-02-11T19:34:38.391Z,44.15
2019-02-11T19:39:48.135Z,44.83
2019-02-11T19:42:56.239Z,44.69
2019-02-11T19:45:46.257Z,45.05
2019-02-11T19:48:30.518Z,45.06
2019-02-11T19:51:21.352Z,44.93
2019-02-11T19:54:11.359Z,43.81
2019-02-11T19:59:44.260Z,44.26
2019-02-11T20:02:15.357Z,44.01
2019-02-11T20:05:06.234Z,43.75
2019-02-11T20:07:43.018Z,43.75
2019-02-11T20:10:33.155Z,44.61
2019-02-11T20:13:06.121Z,44.05
2019-02-11T20:15:41.190Z,44.29
2019-02-11T20:21:41.761Z,45.07
2019-02-11T20:24:22.635Z,45.65
2019-02-11T20:26:53.187Z,46.04
2019-02-11T20:29:24.765Z,45.86
2019-02-11T20:35:20.834Z,46.47
2019-02-11T20:44:31.870Z,46.58
2019-02-11T20:49:47.247Z,45.93
2019-02-11T20:52:37.023Z,46.07
2019-02-11T20:55:50.619Z,46.43
2019-02-11T20:58:41.554Z,46.31
2019-02-11T21:01:19.580Z,46.75
2019-02-11T21:09:53.877Z,47.77
2019-02-11T21:12:45.706Z,48.40
2019-02-11T21:15:38.081Z,48.25
2019-02-11T21:20:39.471Z,49.34
2019-02-11T21:26:43.700Z,49.03
2019-02-11T21:29:16.188Z,48.66
2019-02-11T21:34:51.999Z,49.78
2019-02-11T21:40:24.574Z,50.29
2019-02-11T21:43:14.845Z,50.88
2019-02-11T21:46:07.314Z,50.88
2019-02-11T21:51:40.929Z,50.61
2019-02-11T21:57:44.974Z,50.86
2019-02-11T22:00:35.320Z,50.63
2019-02-11T22:03:24.375Z,50.06
2019-02-11T22:06:15.606Z,50.46
2019-02-11T22:12:06.236Z,49.48
2019-02-11T22:14:37.165Z,49.43
2019-02-11T22:17:27.158Z,49.09
2019-02-11T22:20:17.084Z,48.91
2019-02-11T22:25:57.648Z,48.58
2019-02-11T22:31:22.780Z,48.69
2019-02-11T22:33:55.049Z,48.54
2019-02-11T22:36:26.838Z,48.21
2019-02-11T22:38:58.626Z,47.95
2019-02-11T22:41:31.169Z,48.38
2019-02-11T22:44:05.289Z,49.25
2019-02-11T22:46:56.019Z,48.99
2019-02-11T22:49:30.800Z,48.98
2019-02-11T22:52:42.758Z,49.08
2019-02-11T22:58:26.387Z,49.40
2019-02-11T23:01:17.322Z,49.35
2019-02-11T23:04:27.107Z,49.43
2019-02-11T23:07:01.435Z,50.05
2019-02-11T23:09:32.335Z,50.24
2019-02-11T23:12:22.415Z,50.91
2019-02-11T23:18:18.594Z,51.35
2019-02-11T23:20:52.186Z,51.27
2019-02-11T23:23:20.736Z,51.58
2019-02-11T23:28:42.322Z,51.41
2019-02-11T23:34:37.779Z,51.07
2019-02-11T23:44:04.436Z,50.72
2019-02-11T23:47:06.534Z,51.25
2019-02-11T23:50:08.482Z,51.35
2019-02-11T23:52:39.297Z,51.59
2019-02-11T23:58:29.741Z,51.05
